createdAt,value
2023-01-27T00:01:41.089Z,101681.20
2023-01-27T00:04:09.771Z,101677.80
2023-01-27T00:06:38.266Z,101676.60
2023-01-27T00:09:06.836Z,101679.60
2023-01-27T00:11:54.158Z,101676.60
2023-01-27T00:14:23.763Z,101677.60
2023-01-27T00:16:53.261Z,101675.20
2023-01-27T00:19:21.728Z,101673.20
2023-01-27T00:22:08.980Z,101677.80
2023-01-27T00:24:37.768Z,101673.20
2023-01-27T00:27:09.259Z,101678.00
2023-01-27T00:29:40.980Z,101683.20
2023-01-27T00:32:29.681Z,101683.80
2023-01-27T00:34:58.340Z,101677.40
2023-01-27T00:37:27.213Z,101675.40
2023-01-27T00:39:55.798Z,101672.20
2023-01-27T00:42:24.380Z,101670.80
2023-01-27T00:45:11.500Z,101678.40
2023-01-27T00:47:41.212Z,101674.00
2023-01-27T00:50:11.214Z,101672.80
2023-01-27T00:52:40.224Z,101674.40
2023-01-27T00:55:11.088Z,101682.40
2023-01-27T00:57:39.536Z,101680.20
2023-01-27T01:00:10.573Z,101681.40
2023-01-27T01:02:39.194Z,101681.00
2023-01-27T01:05:08.743Z,101684.80
2023-01-27T01:07:37.254Z,101689.20
2023-01-27T01:10:06.728Z,101691.00
2023-01-27T01:12:35.959Z,101687.40
2023-01-27T01:15:05.325Z,101687.80
2023-01-27T01:17:33.844Z,101686.00
2023-01-27T01:20:02.838Z,101693.20
2023-01-27T01:22:31.421Z,101692.20
2023-01-27T01:25:00.143Z,101690.20
2023-01-27T01:27:31.058Z,101686.60
2023-01-27T01:30:01.372Z,101691.60
2023-01-27T01:32:30.061Z,101689.80
2023-01-27T01:34:58.542Z,101691.00
2023-01-27T01:37:27.128Z,101688.20
2023-01-27T01:39:55.712Z,101682.00
2023-01-27T01:42:25.427Z,101685.60
2023-01-27T01:45:32.220Z,101688.80
2023-01-27T01:48:09.817Z,101696.00
2023-01-27T01:50:42.582Z,101700.20
2023-01-27T01:53:12.202Z,101704.80
2023-01-27T01:55:41.598Z,101699.80
2023-01-27T01:58:13.008Z,101700.40
2023-01-27T02:00:42.140Z,101696.60
2023-01-27T02:03:11.339Z,101698.20
2023-01-27T02:05:44.961Z,101698.00
2023-01-27T02:08:44.452Z,101702.60
2023-01-27T02:11:13.044Z,101703.20
2023-01-27T02:13:43.463Z,101705.00
2023-01-27T02:16:13.411Z,101702.40
2023-01-27T02:18:43.467Z,101699.00
2023-01-27T02:21:12.200Z,101694.00
2023-01-27T02:23:56.097Z,101693.00
2023-01-27T02:26:39.107Z,101696.20
2023-01-27T02:29:12.560Z,101697.40
2023-01-27T02:31:42.148Z,101697.20
2023-01-27T02:34:16.442Z,101705.60
2023-01-27T02:37:03.296Z,101699.40
2023-01-27T02:39:39.327Z,101699.40
2023-01-27T02:42:12.614Z,101703.60
2023-01-27T02:44:41.141Z,101697.20
2023-01-27T02:47:09.814Z,101700.60
2023-01-27T02:49:38.910Z,101699.00
2023-01-27T02:52:09.135Z,101697.60
2023-01-27T02:54:37.819Z,101704.00
2023-01-27T02:57:06.507Z,101706.60
2023-01-27T02:59:36.321Z,101707.80
2023-01-27T03:02:05.156Z,101703.60
2023-01-27T03:04:33.821Z,101704.60
2023-01-27T03:07:05.558Z,101695.80
2023-01-27T03:09:34.141Z,101694.40
2023-01-27T03:12:21.054Z,101692.80
2023-01-27T03:15:11.224Z,101695.00
2023-01-27T03:17:59.284Z,101695.40
2023-01-27T03:20:28.175Z,101690.40
2023-01-27T03:22:56.864Z,101690.80
2023-01-27T03:25:26.265Z,101693.60
2023-01-27T03:27:57.638Z,101697.00
2023-01-27T03:31:20.058Z,101697.60
2023-01-27T03:33:54.489Z,101707.40
2023-01-27T03:36:51.640Z,101709.60
2023-01-27T03:39:39.372Z,101716.40
2023-01-27T03:42:27.004Z,101715.20
2023-01-27T03:45:15.605Z,101720.80
2023-01-27T03:47:44.451Z,101718.40
2023-01-27T03:50:19.482Z,101720.80
2023-01-27T03:53:03.562Z,101724.00
2023-01-27T03:55:34.224Z,101724.40
2023-01-27T03:58:19.934Z,101723.20
2023-01-27T04:00:58.277Z,101723.60
2023-01-27T04:03:53.583Z,101722.60
2023-01-27T04:06:53.435Z,101727.40
2023-01-27T04:09:34.357Z,101723.40
2023-01-27T04:12:06.534Z,101724.20
2023-01-27T04:14:43.157Z,101726.80
2023-01-27T04:17:17.909Z,101729.80
2023-01-27T04:19:47.855Z,101737.40
2023-01-27T04:22:17.499Z,101736.80
2023-01-27T04:24:46.149Z,101733.60
2023-01-27T04:27:20.595Z,101731.20
2023-01-27T04:29:49.380Z,101728.20
2023-01-27T04:32:17.942Z,101728.20
2023-01-27T04:34:46.629Z,101730.20
2023-01-27T04:37:15.422Z,101734.40
2023-01-27T04:39:46.053Z,101736.00
2023-01-27T04:42:14.658Z,101733.00
2023-01-27T04:44:43.423Z,101735.20
2023-01-27T04:47:11.908Z,101730.20
2023-01-27T04:49:40.492Z,101737.20
2023-01-27T04:52:09.179Z,101741.20
2023-01-27T04:54:37.765Z,101741.20
2023-01-27T04:57:06.452Z,101742.40
2023-01-27T04:59:35.136Z,101741.20
2023-01-27T05:02:04.960Z,101742.60
2023-01-27T05:04:33.962Z,101736.60
2023-01-27T05:07:02.842Z,101737.60
2023-01-27T05:09:31.419Z,101737.60
2023-01-27T05:12:00.005Z,101737.20
2023-01-27T05:14:28.690Z,101734.00
2023-01-27T05:16:57.321Z,101732.20
2023-01-27T05:19:26.073Z,101733.20
2023-01-27T05:21:54.649Z,101736.20
2023-01-27T05:24:23.369Z,101738.60
2023-01-27T05:26:53.766Z,101735.20
2023-01-27T05:29:22.455Z,101739.40
2023-01-27T05:31:51.072Z,101736.80
2023-01-27T05:34:19.720Z,101739.40
2023-01-27T05:36:48.408Z,101740.40
2023-01-27T05:39:17.299Z,101742.60
2023-01-27T05:41:45.785Z,101739.00
2023-01-27T05:44:14.476Z,101743.00
2023-01-27T05:46:43.303Z,101743.20
2023-01-27T05:49:12.353Z,101746.40
2023-01-27T05:51:41.141Z,101745.80
2023-01-27T05:54:10.858Z,101754.40
2023-01-27T05:56:40.973Z,101757.40
2023-01-27T05:59:11.417Z,101758.00
2023-01-27T06:01:40.318Z,101764.00
2023-01-27T06:04:10.940Z,101766.00
2023-01-27T06:06:39.514Z,101772.00
2023-01-27T06:09:08.207Z,101776.00
2023-01-27T06:11:36.797Z,101781.00
2023-01-27T06:14:05.576Z,101780.40
2023-01-27T06:16:34.439Z,101781.00
2023-01-27T06:19:03.258Z,101782.60
2023-01-27T06:21:31.942Z,101781.20
2023-01-27T06:24:00.653Z,101783.40
2023-01-27T06:26:29.313Z,101782.40
2023-01-27T06:28:58.307Z,101781.20
2023-01-27T06:31:27.773Z,101781.80
2023-01-27T06:33:57.033Z,101783.20
2023-01-27T06:36:25.728Z,101795.80
2023-01-27T06:38:54.596Z,101796.40
2023-01-27T06:41:23.398Z,101794.80
2023-01-27T06:43:52.080Z,101789.20
2023-01-27T06:46:20.692Z,101788.60
2023-01-27T06:48:49.339Z,101794.20
2023-01-27T06:51:17.819Z,101792.20
2023-01-27T06:53:46.410Z,101794.00
2023-01-27T06:56:16.464Z,101797.80
2023-01-27T06:58:46.275Z,101797.00
2023-01-27T07:01:14.883Z,101800.80
2023-01-27T07:03:45.006Z,101800.60
2023-01-27T07:06:15.375Z,101794.60
2023-01-27T07:08:47.225Z,101799.20
2023-01-27T07:11:15.934Z,101800.60
2023-01-27T07:13:45.010Z,101800.00
2023-01-27T07:16:13.623Z,101795.00
2023-01-27T07:18:42.384Z,101800.40
2023-01-27T07:21:11.072Z,101800.60
2023-01-27T07:23:39.763Z,101809.80
2023-01-27T07:26:23.215Z,101809.40
2023-01-27T07:28:53.780Z,101812.80
2023-01-27T07:31:23.640Z,101812.40
2023-01-27T07:33:54.193Z,101813.00
2023-01-27T07:36:22.956Z,101818.40
2023-01-27T07:38:51.939Z,101818.40
2023-01-27T07:41:23.253Z,101812.20
2023-01-27T07:43:52.603Z,101816.40
2023-01-27T07:46:21.394Z,101818.40
2023-01-27T07:48:50.537Z,101825.40
2023-01-27T07:51:19.275Z,101827.40
2023-01-27T07:53:48.070Z,101831.80
2023-01-27T07:56:16.649Z,101829.00
2023-01-27T07:58:45.333Z,101829.60
2023-01-27T08:01:13.968Z,101839.20
2023-01-27T08:03:42.717Z,101840.20
2023-01-27T08:06:13.292Z,101848.40
2023-01-27T08:08:42.218Z,101841.20
2023-01-27T08:11:14.092Z,101851.00
2023-01-27T08:13:43.400Z,101843.40
2023-01-27T08:16:15.595Z,101842.60
2023-01-27T08:18:44.164Z,101845.60
2023-01-27T08:21:13.919Z,101849.40
2023-01-27T08:23:42.756Z,101850.00
2023-01-27T08:26:11.862Z,101845.40
2023-01-27T08:28:41.125Z,101848.60
2023-01-27T08:31:16.465Z,101845.80
2023-01-27T08:33:51.890Z,101840.00
2023-01-27T08:36:23.154Z,101846.00
2023-01-27T08:38:52.381Z,101848.40
2023-01-27T08:41:27.121Z,101851.40
2023-01-27T08:43:56.229Z,101848.40
2023-01-27T08:46:25.414Z,101853.20
2023-01-27T08:48:54.102Z,101849.60
2023-01-27T08:51:22.888Z,101852.00
2023-01-27T08:53:51.786Z,101854.40
2023-01-27T08:56:20.740Z,101849.00
2023-01-27T08:58:49.355Z,101841.80
2023-01-27T09:01:18.779Z,101846.00
2023-01-27T09:03:47.340Z,101846.40
2023-01-27T09:06:17.366Z,101843.60
2023-01-27T09:09:06.017Z,101847.20
2023-01-27T09:11:36.992Z,101852.40
2023-01-27T09:14:05.777Z,101856.20
2023-01-27T09:16:34.357Z,101853.00
2023-01-27T09:19:04.462Z,101855.20
2023-01-27T09:21:33.030Z,101854.60
2023-01-27T09:24:01.745Z,101855.80
2023-01-27T09:26:30.522Z,101869.60
2023-01-27T09:28:59.295Z,101871.00
2023-01-27T09:31:28.064Z,101863.40
2023-01-27T09:33:56.883Z,101863.60
2023-01-27T09:36:25.455Z,101868.00
2023-01-27T09:39:07.632Z,101871.40
2023-01-27T09:41:51.322Z,101874.00
2023-01-27T09:44:52.348Z,101874.20
2023-01-27T09:47:39.465Z,101874.00
2023-01-27T09:50:29.947Z,101878.00
2023-01-27T09:53:14.522Z,101882.40
2023-01-27T09:56:04.511Z,101882.60
2023-01-27T09:58:54.604Z,101880.60
2023-01-27T10:01:51.481Z,101884.00
2023-01-27T10:04:57.756Z,101879.40
2023-01-27T10:08:23.335Z,101875.60
2023-01-27T10:11:16.808Z,101868.60
2023-01-27T10:14:16.926Z,101869.00
2023-01-27T10:17:00.773Z,101862.20
2023-01-27T10:20:03.349Z,101867.80
2023-01-27T10:23:09.525Z,101872.00
2023-01-27T10:25:53.056Z,101875.80
2023-01-27T10:28:29.051Z,101878.60
2023-01-27T10:31:30.507Z,101868.80
2023-01-27T10:34:14.510Z,101874.00
2023-01-27T10:36:48.860Z,101876.60
2023-01-27T10:39:44.449Z,101881.40
2023-01-27T10:42:52.867Z,101878.60
2023-01-27T10:45:58.877Z,101878.80
2023-01-27T10:48:51.373Z,101884.40
2023-01-27T10:51:31.324Z,101884.60
2023-01-27T10:54:39.440Z,101881.80
2023-01-27T10:57:29.731Z,101882.80
2023-01-27T11:00:51.740Z,101882.40
2023-01-27T11:03:33.571Z,101883.60
2023-01-27T11:06:09.190Z,101880.80
2023-01-27T11:08:42.202Z,101879.60
2023-01-27T11:11:29.422Z,101875.80
2023-01-27T11:14:09.467Z,101882.00
2023-01-27T11:16:43.269Z,101880.00
2023-01-27T11:19:26.815Z,101883.60
2023-01-27T11:22:07.045Z,101885.20
2023-01-27T11:24:47.457Z,101878.20
2023-01-27T11:27:58.112Z,101878.00
2023-01-27T11:30:42.987Z,101874.20
2023-01-27T11:33:28.659Z,101875.80
2023-01-27T11:35:57.375Z,101869.80
2023-01-27T11:38:26.163Z,101872.80
2023-01-27T11:40:55.235Z,101869.60
2023-01-27T11:43:27.032Z,101868.60
2023-01-27T11:46:08.293Z,101864.20
2023-01-27T11:48:52.831Z,101865.60
2023-01-27T11:51:29.234Z,101862.40
2023-01-27T11:54:37.205Z,101867.80
2023-01-27T11:57:05.790Z,101863.40
2023-01-27T11:59:41.348Z,101864.60
2023-01-27T12:02:09.831Z,101859.60
2023-01-27T12:05:09.753Z,101852.20
2023-01-27T12:07:52.865Z,101847.80
2023-01-27T12:10:33.578Z,101850.40
2023-01-27T12:13:25.487Z,101842.60
2023-01-27T12:16:05.639Z,101843.80
2023-01-27T12:18:36.315Z,101840.80
2023-01-27T12:21:09.141Z,101837.20
2023-01-27T12:23:47.635Z,101833.80
2023-01-27T12:26:16.651Z,101836.00
2023-01-27T12:28:55.380Z,101829.00
2023-01-27T12:31:31.277Z,101827.40
2023-01-27T12:34:08.728Z,101823.60
2023-01-27T12:36:43.578Z,101817.20
2023-01-27T12:39:50.383Z,101820.60
2023-01-27T12:42:38.583Z,101820.60
2023-01-27T12:45:40.246Z,101826.00
2023-01-27T12:48:19.067Z,101823.40
2023-01-27T12:50:50.347Z,101827.40
2023-01-27T12:53:27.964Z,101826.40
2023-01-27T12:56:07.562Z,101828.00
2023-01-27T12:59:00.095Z,101829.80
2023-01-27T13:01:36.597Z,101832.20
2023-01-27T13:04:22.150Z,101832.00
2023-01-27T13:07:03.056Z,101835.80
2023-01-27T13:09:58.015Z,101835.80
2023-01-27T13:12:56.202Z,101839.20
2023-01-27T13:15:28.985Z,101840.20
2023-01-27T13:18:14.014Z,101842.60
2023-01-27T13:20:51.454Z,101846.00
2023-01-27T13:23:25.208Z,101844.40
2023-01-27T13:26:09.237Z,101850.40
2023-01-27T13:28:56.324Z,101854.40
2023-01-27T13:31:49.941Z,101855.40
2023-01-27T13:34:41.719Z,101858.20
2023-01-27T13:37:43.889Z,101860.60
2023-01-27T13:40:29.991Z,101856.00
2023-01-27T13:43:42.805Z,101857.40
2023-01-27T13:46:30.919Z,101859.40
2023-01-27T13:49:10.694Z,101865.00
2023-01-27T13:51:39.655Z,101872.40
2023-01-27T13:54:15.804Z,101872.60
2023-01-27T13:57:28.474Z,101877.00
2023-01-27T14:00:33.920Z,101877.20
2023-01-27T14:03:40.513Z,101885.00
2023-01-27T14:06:41.655Z,101881.00
2023-01-27T14:09:53.437Z,101880.00
2023-01-27T14:13:19.162Z,101886.00
2023-01-27T14:16:02.658Z,101884.20
2023-01-27T14:18:38.454Z,101885.00
2023-01-27T14:21:44.599Z,101888.40
2023-01-27T14:25:02.574Z,101893.20
2023-01-27T14:27:43.230Z,101898.00
2023-01-27T14:30:32.353Z,101897.40
2023-01-27T14:33:22.583Z,101892.80
2023-01-27T14:36:27.545Z,101898.00
2023-01-27T14:39:42.702Z,101905.00
2023-01-27T14:42:24.925Z,101905.60
2023-01-27T14:45:47.760Z,101901.60
2023-01-27T14:48:52.197Z,101905.20
2023-01-27T14:51:42.685Z,101910.40
2023-01-27T14:54:45.774Z,101913.80
2023-01-27T14:57:48.259Z,101911.60
2023-01-27T15:00:43.328Z,101917.20
2023-01-27T15:03:47.693Z,101921.60
2023-01-27T15:06:56.502Z,101921.60
2023-01-27T15:09:54.999Z,101927.20
2023-01-27T15:12:44.477Z,101932.80
2023-01-27T15:15:38.454Z,101936.00
2023-01-27T15:18:16.765Z,101939.40
2023-01-27T15:21:05.728Z,101935.80
2023-01-27T15:23:40.703Z,101942.80
2023-01-27T15:26:11.146Z,101945.60
2023-01-27T15:28:43.832Z,101939.60
2023-01-27T15:31:15.567Z,101945.20
2023-01-27T15:33:56.777Z,101944.60
2023-01-27T15:36:28.398Z,101949.80
2023-01-27T15:39:09.352Z,101948.40
2023-01-27T15:41:39.155Z,101949.20
2023-01-27T15:44:19.558Z,101949.60
2023-01-27T15:46:56.246Z,101958.20
2023-01-27T15:49:40.846Z,101958.80
2023-01-27T15:52:22.242Z,101966.20
2023-01-27T15:54:53.992Z,101968.00
2023-01-27T15:57:34.053Z,101970.20
2023-01-27T16:00:16.965Z,101975.60
2023-01-27T16:02:50.987Z,101975.60
2023-01-27T16:05:46.085Z,101977.60
2023-01-27T16:08:16.698Z,101978.80
2023-01-27T16:10:46.127Z,101982.20
2023-01-27T16:13:28.841Z,101989.60
2023-01-27T16:16:19.597Z,101990.20
2023-01-27T16:18:59.897Z,101994.60
2023-01-27T16:21:54.192Z,101999.20
2023-01-27T16:24:36.187Z,101999.00
2023-01-27T16:27:16.953Z,101996.20
2023-01-27T16:29:48.990Z,102002.00
2023-01-27T16:32:21.702Z,102000.20
2023-01-27T16:34:59.612Z,102008.60
2023-01-27T16:37:36.280Z,102007.00
2023-01-27T16:40:24.345Z,102008.20
2023-01-27T16:42:52.915Z,102012.00
2023-01-27T16:45:30.390Z,102016.40
2023-01-27T16:48:12.707Z,102014.20
2023-01-27T16:50:44.558Z,102014.40
2023-01-27T16:53:23.259Z,102022.40
2023-01-27T16:56:19.729Z,102019.80
2023-01-27T16:58:51.017Z,102022.60
2023-01-27T17:01:34.972Z,102031.40
2023-01-27T17:04:18.010Z,102028.00
2023-01-27T17:06:54.087Z,102031.20
2023-01-27T17:09:28.510Z,102034.00
2023-01-27T17:11:57.749Z,102032.00
2023-01-27T17:14:36.435Z,102034.60
2023-01-27T17:17:18.081Z,102039.40
2023-01-27T17:19:54.568Z,102044.40
2023-01-27T17:22:31.194Z,102040.80
2023-01-27T17:25:11.316Z,102044.00
2023-01-27T17:27:43.194Z,102046.20
2023-01-27T17:30:14.828Z,102044.20
2023-01-27T17:32:48.357Z,102048.00
2023-01-27T17:35:24.765Z,102055.40
2023-01-27T17:38:24.555Z,102046.80
2023-01-27T17:40:55.087Z,102045.60
2023-01-27T17:43:33.587Z,102042.80
2023-01-27T17:46:05.208Z,102053.20
2023-01-27T17:48:38.838Z,102053.00
2023-01-27T17:51:12.999Z,102054.00
2023-01-27T17:53:43.450Z,102053.40
2023-01-27T17:56:32.916Z,102056.80
2023-01-27T17:59:11.916Z,102057.40
2023-01-27T18:01:41.061Z,102065.20
2023-01-27T18:04:10.769Z,102069.40
2023-01-27T18:06:42.722Z,102068.40
2023-01-27T18:09:28.142Z,102068.60
2023-01-27T18:12:05.459Z,102073.00
2023-01-27T18:14:37.292Z,102072.00
2023-01-27T18:17:24.143Z,102076.20
2023-01-27T18:19:56.413Z,102068.80
2023-01-27T18:22:26.586Z,102079.80
2023-01-27T18:25:01.676Z,102074.80
2023-01-27T18:27:37.072Z,102079.40
2023-01-27T18:30:19.319Z,102089.80
2023-01-27T18:32:59.900Z,102090.80
2023-01-27T18:35:32.844Z,102087.60
2023-01-27T18:38:18.927Z,102090.80
2023-01-27T18:40:48.659Z,102097.40
2023-01-27T18:43:17.528Z,102095.00
2023-01-27T18:45:47.751Z,102097.40
2023-01-27T18:48:17.728Z,102095.20
2023-01-27T18:50:47.628Z,102093.20
2023-01-27T18:53:19.519Z,102092.60
2023-01-27T18:55:48.235Z,102090.80
2023-01-27T18:58:18.179Z,102089.00
2023-01-27T19:00:50.675Z,102090.00
2023-01-27T19:03:23.923Z,102093.80
2023-01-27T19:05:54.141Z,102100.00
2023-01-27T19:08:25.408Z,102099.00
2023-01-27T19:10:53.973Z,102097.60
2023-01-27T19:13:23.908Z,102100.40
2023-01-27T19:15:57.515Z,102112.40
2023-01-27T19:18:34.160Z,102113.40
2023-01-27T19:21:03.500Z,102113.20
2023-01-27T19:23:32.951Z,102116.20
2023-01-27T19:26:05.364Z,102116.80
2023-01-27T19:28:38.214Z,102120.80
2023-01-27T19:31:08.407Z,102117.60
2023-01-27T19:33:42.160Z,102120.60
2023-01-27T19:36:46.274Z,102129.00
2023-01-27T19:39:17.836Z,102122.40
2023-01-27T19:41:47.233Z,102125.80
2023-01-27T19:44:16.399Z,102126.00
2023-01-27T19:46:45.224Z,102127.60
2023-01-27T19:49:18.372Z,102127.20
2023-01-27T19:51:47.565Z,102133.00
2023-01-27T19:54:17.333Z,102136.60
2023-01-27T19:56:46.423Z,102135.60
2023-01-27T19:59:15.006Z,102143.60
2023-01-27T20:01:44.529Z,102146.20
2023-01-27T20:04:13.430Z,102152.60
2023-01-27T20:06:42.199Z,102154.40
2023-01-27T20:09:11.444Z,102155.00
2023-01-27T20:11:44.632Z,102149.80
2023-01-27T20:14:19.529Z,102156.80
2023-01-27T20:16:48.893Z,102157.20
2023-01-27T20:19:17.713Z,102167.60
2023-01-27T20:21:47.273Z,102164.60
2023-01-27T20:24:19.970Z,102165.80
2023-01-27T20:26:49.094Z,102174.40
2023-01-27T20:29:17.681Z,102169.20
2023-01-27T20:31:47.171Z,102170.60
2023-01-27T20:34:16.413Z,102174.80
2023-01-27T20:36:44.964Z,102178.20
2023-01-27T20:39:13.562Z,102175.40
2023-01-27T20:41:43.438Z,102175.20
2023-01-27T20:44:12.872Z,102178.60
2023-01-27T20:46:41.457Z,102178.20
2023-01-27T20:49:10.151Z,102181.20
2023-01-27T20:51:39.343Z,102183.40
2023-01-27T20:54:08.142Z,102183.00
2023-01-27T20:56:36.817Z,102184.60
2023-01-27T20:59:05.504Z,102191.60
2023-01-27T21:01:35.756Z,102194.40
2023-01-27T21:04:04.416Z,102195.00
2023-01-27T21:06:33.001Z,102197.00
2023-01-27T21:09:03.330Z,102192.80
2023-01-27T21:11:33.292Z,102202.80
2023-01-27T21:14:03.055Z,102206.60
2023-01-27T21:16:32.386Z,102203.80
2023-01-27T21:19:02.773Z,102207.00
2023-01-27T21:21:32.797Z,102208.60
2023-01-27T21:24:01.839Z,102210.00
2023-01-27T21:26:33.908Z,102210.60
2023-01-27T21:29:05.908Z,102208.00
2023-01-27T21:31:34.776Z,102216.60
2023-01-27T21:34:05.830Z,102214.80
2023-01-27T21:36:35.684Z,102218.60
2023-01-27T21:39:06.111Z,102214.80
2023-01-27T21:41:54.259Z,102212.00
2023-01-27T21:44:45.454Z,102216.20
2023-01-27T21:47:21.223Z,102217.20
2023-01-27T21:50:04.957Z,102219.00
2023-01-27T21:52:43.267Z,102218.60
2023-01-27T21:55:23.928Z,102221.40
2023-01-27T21:57:56.816Z,102216.40
2023-01-27T22:00:29.916Z,102214.00
2023-01-27T22:03:03.818Z,102213.00
2023-01-27T22:05:35.935Z,102206.80
2023-01-27T22:08:07.040Z,102209.40
2023-01-27T22:10:36.222Z,102206.00
2023-01-27T22:13:05.252Z,102210.20
2023-01-27T22:15:34.924Z,102206.20
2023-01-27T22:18:04.915Z,102203.40
2023-01-27T22:20:34.557Z,102209.60
2023-01-27T22:23:03.350Z,102204.80
2023-01-27T22:25:33.674Z,102198.80
2023-01-27T22:28:02.473Z,102198.60
2023-01-27T22:30:33.379Z,102207.40
2023-01-27T22:33:02.902Z,102204.20
2023-01-27T22:35:32.002Z,102207.20
2023-01-27T22:38:03.127Z,102209.00
2023-01-27T22:40:32.239Z,102209.80
2023-01-27T22:43:01.310Z,102209.40
2023-01-27T22:45:32.129Z,102212.80
2023-01-27T22:48:03.462Z,102216.80
2023-01-27T22:50:32.623Z,102222.40
2023-01-27T22:53:01.306Z,102215.80
2023-01-27T22:55:32.324Z,102214.20
2023-01-27T22:58:03.265Z,102209.20
2023-01-27T23:00:32.179Z,102205.00
2023-01-27T23:03:02.826Z,102206.80
2023-01-27T23:05:31.702Z,102204.40
2023-01-27T23:08:01.955Z,102198.80
2023-01-27T23:10:30.629Z,102208.00
2023-01-27T23:12:59.201Z,102209.20
2023-01-27T23:15:28.400Z,102203.40
2023-01-27T23:17:57.389Z,102209.40
2023-01-27T23:20:26.180Z,102203.00
2023-01-27T23:22:56.042Z,102195.40
2023-01-27T23:25:27.855Z,102195.40
2023-01-27T23:27:57.580Z,102193.80
2023-01-27T23:30:27.102Z,102189.60
2023-01-27T23:32:56.774Z,102193.00
2023-01-27T23:35:25.987Z,102193.40
2023-01-27T23:37:54.768Z,102196.00
2023-01-27T23:40:23.769Z,102188.40
2023-01-27T23:42:54.970Z,102181.00
2023-01-27T23:45:25.990Z,102181.00
2023-01-27T23:47:55.352Z,102179.40
2023-01-27T23:50:24.770Z,102180.80
2023-01-27T23:52:53.242Z,102180.40
2023-01-27T23:55:22.438Z,102186.60
2023-01-27T23:57:50.919Z,102183.20
